Time;durP1;ratioP1;P1;durP2;ratioP2;P2;SDS_P1;SDS_P2;PMS_P1;PMS_P2;Temp;Humidity;BMP_temperature;BMP_pressure;BME280_temperature;BME280_humidity;BME280_pressure;Samples;Min_cycle;Max_cycle;Signal;HPM_P1;HPM_P2
2022/05/25 00:01:01;;;;;;;10.80;7.00;;;8.80;1.00;;;9.39;97.06;99085.31;5045164;27;129785;-75
2022/05/25 00:03:32;;;;;;;11.40;6.72;;;8.80;1.00;;;9.32;97.53;99080.38;5060804;27;121001;-74
2022/05/25 00:06:01;;;;;;;11.27;6.63;;;8.80;1.00;;;9.32;97.67;99085.78;5060419;27;119438;-74
2022/05/25 00:08:30;;;;;;;10.43;6.57;;;8.70;1.00;;;9.33;97.07;99092.81;5057625;27;130486;-74
2022/05/25 00:10:58;;;;;;;10.98;6.88;;;8.70;1.00;;;9.35;96.67;99090.56;5060163;27;129959;-74
2022/05/25 00:13:27;;;;;;;11.23;6.80;;;8.60;1.00;;;9.34;96.57;99094.38;5059229;27;120119;-74
2022/05/25 00:15:55;;;;;;;10.60;6.05;;;8.60;1.00;;;9.31;96.31;99094.22;5060157;27;119694;-74
2022/05/25 00:18:24;;;;;;;11.02;7.30;;;8.60;1.00;;;9.29;96.35;99091.81;5059876;27;130970;-73
2022/05/25 00:20:53;;;;;;;10.60;6.43;;;8.50;1.00;;;9.28;96.35;99095.63;5059921;27;129720;-75
2022/05/25 00:23:22;;;;;;;11.52;6.95;;;8.50;1.00;;;9.23;96.95;99087.66;5060036;27;120587;-75
2022/05/25 00:25:50;;;;;;;11.43;7.30;;;8.50;1.00;;;9.15;97.37;99091.13;5062310;27;119156;-75
2022/05/25 00:28:19;;;;;;;14.65;7.22;;;8.50;1.00;;;9.08;97.92;99090.78;5058148;27;130749;-74
2022/05/25 00:30:49;;;;;;;12.55;7.15;;;8.50;1.00;;;9.07;97.91;99091.88;5061965;27;129173;-75
2022/05/25 00:33:21;;;;;;;12.45;7.20;;;8.40;1.00;;;9.06;97.54;99098.41;5060617;27;121040;-75
2022/05/25 00:35:50;;;;;;;13.48;7.35;;;8.40;1.00;;;9.05;97.62;99094.88;5058694;27;121973;-76
2022/05/25 00:38:20;;;;;;;13.45;8.00;;;8.30;1.00;;;9.04;98.12;99093.31;5059218;27;130088;-73
2022/05/25 00:40:49;;;;;;;13.43;7.63;;;8.40;1.00;;;9.05;98.09;99091.41;5059517;27;130613;-74
2022/05/25 00:43:17;;;;;;;18.70;7.85;;;8.40;1.00;;;8.98;98.42;99098.03;5059848;27;119370;-74
2022/05/25 00:45:51;;;;;;;11.98;8.15;;;8.40;1.00;;;8.88;99.71;99084.78;5061718;27;118609;-75
2022/05/25 00:48:26;;;;;;;13.43;7.88;;;8.40;1.00;;;8.81;100.00;99084.44;5059767;27;130687;-75
2022/05/25 00:53:44;;;;;;;12.25;7.78;;;8.40;1.00;;;8.75;100.00;99077.53;5059374;27;119950;-75
2022/05/25 00:56:17;;;;;;;12.82;7.95;;;8.30;1.00;;;8.74;100.00;99084.06;5059759;27;120029;-73
2022/05/25 00:58:53;;;;;;;14.55;7.40;;;8.30;1.00;;;8.74;100.00;99086.75;5060431;27;130337;-75
2022/05/25 01:01:22;;;;;;;14.43;8.38;;;8.30;1.00;;;8.75;100.00;99093.78;5059261;27;129583;-75
2022/05/25 01:03:50;;;;;;;15.07;8.77;;;8.40;1.00;;;8.77;100.00;99080.72;5059587;27;119913;-74
2022/05/25 01:06:36;;;;;;;14.13;8.35;;;8.30;1.00;;;8.76;100.00;99087.28;5059408;27;120010;-74
2022/05/25 01:09:15;;;;;;;14.93;8.63;;;8.30;1.00;;;8.74;100.00;99087.56;5059338;27;130242;-74
2022/05/25 01:12:01;;;;;;;17.02;8.80;;;8.20;1.00;;;8.66;100.00;99084.81;5060762;27;128988;-75
2022/05/25 01:14:50;;;;;;;15.38;8.43;;;8.10;1.00;;;8.51;100.00;99088.66;5059700;27;120248;-75
2022/05/25 01:17:32;;;;;;;16.30;8.75;;;8.10;1.00;;;8.37;100.00;99083.31;5059618;27;119695;-74
2022/05/25 01:20:14;;;;;;;13.20;8.35;;;8.10;1.00;;;8.34;100.00;99083.94;5078248;27;129585;-74
2022/05/25 01:23:33;;;;;;;15.73;8.88;;;8.10;2.00;;;8.37;100.00;99088.72;5058770;27;129424;-74
2022/05/25 01:26:55;;;;;;;15.18;8.65;;;8.00;11.40;;;8.28;100.00;99092.16;5060132;27;121053;-74
2022/05/25 01:30:09;;;;;;;15.40;9.18;;;8.00;42.60;;;8.17;100.00;99085.38;5000088;27;122429;-74
2022/05/25 01:32:54;;;;;;;13.18;8.73;;;8.00;67.80;;;8.20;100.00;99084.78;5046200;27;129979;-74
2022/05/25 01:35:32;;;;;;;15.63;9.85;;;7.90;79.30;;;8.21;100.00;99082.84;5057183;27;129815;-74
2022/05/25 01:38:09;;;;;;;20.70;9.20;;;8.00;99.90;;;8.20;100.00;99084.78;5059135;27;119678;-75
2022/05/25 01:40:44;;;;;;;16.33;8.57;;;8.00;99.90;;;8.20;100.00;99084.78;5061115;27;119086;-75
2022/05/25 01:43:17;;;;;;;15.32;8.85;;;7.90;99.90;;;8.21;100.00;99086.38;5058545;27;131070;-73
2022/05/25 01:45:54;;;;;;;16.80;9.00;;;7.90;99.90;;;8.20;100.00;99083.97;5059036;27;129440;-74
2022/05/25 01:48:24;;;;;;;15.38;9.52;;;7.80;99.90;;;8.24;100.00;99083.06;5058366;27;119899;-74
2022/05/25 01:50:58;;;;;;;17.60;10.75;;;7.90;99.90;;;8.28;100.00;99086.75;5060666;27;119298;-74
2022/05/25 01:53:34;;;;;;;16.40;9.20;;;7.90;99.90;;;8.22;100.00;99090.66;5055731;27;129629;-75
2022/05/25 01:56:08;;;;;;;18.05;9.15;;;7.90;99.90;;;8.24;100.00;99098.47;5058325;27;129745;-75
2022/05/25 01:58:43;;;;;;;15.88;10.00;;;7.80;99.90;;;8.30;100.00;99088.34;5060827;27;119929;-74
2022/05/25 02:01:14;;;;;;;15.20;9.25;;;7.80;99.90;;;8.35;100.00;99097.16;5058580;27;119935;-74
2022/05/25 02:07:05;;;;;;;15.70;9.35;;;7.80;99.90;;;8.27;100.00;99090.56;5060158;27;129294;-74
2022/05/25 02:09:58;;;;;;;14.30;9.18;;;7.80;99.90;;;8.25;100.00;99102.78;5060890;27;119064;-73
2022/05/25 02:12:45;;;;;;;15.45;9.07;;;7.80;99.90;;;8.22;100.00;99098.78;5074789;27;119972;-74
2022/05/25 02:15:22;;;;;;;;;;;7.80;99.90;;;8.13;100.00;99097.09;5058814;27;130006;-75
2022/05/25 02:18:01;;;;;;;12.40;8.23;;;7.80;99.90;;;8.12;100.00;99099.03;5058357;27;129630;-74
2022/05/25 02:20:36;;;;;;;17.02;9.07;;;7.80;99.90;;;8.23;100.00;99099.59;5057054;27;122710;-74
2022/05/25 02:23:15;;;;;;;14.02;8.95;;;7.80;99.90;;;8.25;100.00;99098.16;5058255;27;122493;-75
2022/05/25 02:25:50;;;;;;;15.80;8.82;;;7.80;99.90;;;8.35;100.00;99105.25;5059983;27;129851;-75
2022/05/25 02:28:28;;;;;;;13.23;8.98;;;7.80;99.90;;;8.45;100.00;99101.53;5057968;27;129401;-74
2022/05/25 02:31:00;;;;;;;15.48;9.40;;;7.90;99.90;;;8.52;100.00;99096.47;5058355;27;119986;-74
2022/05/25 02:33:37;;;;;;;15.50;11.02;;;8.00;99.90;;;8.57;100.00;99101.78;5059899;27;119040;-74
2022/05/25 02:36:09;;;;;;;17.27;10.13;;;8.00;99.90;;;8.71;100.00;99103.59;5057761;27;130185;-74
2022/05/25 02:38:38;;;;;;;17.63;9.18;;;8.10;99.90;;;8.72;100.00;99102.50;5058157;27;130097;-74
2022/05/25 02:41:13;;;;;;;15.05;8.48;;;8.20;99.90;;;8.70;100.00;99099.31;5057005;27;119552;-74
2022/05/25 02:43:42;;;;;;;15.73;9.20;;;8.10;94.90;;;8.75;100.00;99110.81;5059915;27;118275;-74
2022/05/25 02:46:11;;;;;;;21.38;12.18;;;8.20;87.80;;;8.75;100.00;99105.38;5056268;27;129886;-73
2022/05/25 02:48:41;;;;;;;15.30;9.70;;;8.20;80.30;;;8.76;100.00;99111.63;5059616;27;129377;-74
2022/05/25 02:51:09;;;;;;;14.88;9.32;;;8.20;68.00;;;8.77;100.00;99114.03;5056522;27;119526;-74
2022/05/25 02:53:37;;;;;;;14.00;9.10;;;8.20;51.50;;;8.82;100.00;99115.81;5057856;27;120228;-74
2022/05/25 02:56:06;;;;;;;15.27;8.95;;;8.30;41.30;;;8.88;100.00;99114.56;5057658;27;130313;-74
2022/05/25 02:58:35;;;;;;;15.43;9.82;;;8.30;33.30;;;9.07;100.00;99124.34;5059575;27;129157;-76
2022/05/25 03:01:04;;;;;;;13.43;9.15;;;8.40;31.70;;;9.26;99.77;99116.81;5059989;27;120589;-74
2022/05/25 03:03:34;;;;;;;14.20;9.23;;;8.60;23.70;;;9.63;100.00;99128.28;5061975;27;119794;-73
2022/05/25 03:06:04;;;;;;;12.85;8.07;;;8.90;12.60;;;10.77;100.00;99131.91;5060774;27;130640;-75
2022/05/25 03:08:35;;;;;;;12.35;7.15;;;9.80;8.40;;;12.34;96.27;99124.19;5060990;27;130633;-74
2022/05/25 03:11:04;;;;;;;11.73;7.25;;;10.60;1.00;;;13.76;86.33;99125.91;5060083;27;122928;-74
2022/05/25 03:13:33;;;;;;;9.23;6.15;;;10.80;1.00;;;15.13;77.05;99130.66;5061102;27;122326;-76
2022/05/25 03:16:01;;;;;;;11.70;7.72;;;11.60;1.00;;;16.20;69.63;99128.09;5060723;27;131168;-74
2022/05/25 03:18:30;;;;;;;10.23;6.75;;;12.10;1.00;;;16.53;65.09;99131.16;5060989;27;129450;-75
2022/05/25 03:20:58;;;;;;;10.68;6.68;;;12.40;1.00;;;15.81;65.04;99137.78;5063104;27;118832;-75
2022/05/25 03:23:29;;;;;;;12.05;8.07;;;12.00;1.00;;;15.12;67.07;99133.72;5060954;27;119714;-75
2022/05/25 03:25:57;;;;;;;11.40;7.53;;;11.40;1.00;;;14.89;68.00;99131.56;5060673;27;129786;-75
2022/05/25 03:28:25;;;;;;;11.93;7.65;;;11.20;1.00;;;14.54;69.30;99129.41;5060835;27;130193;-76
2022/05/25 03:30:54;;;;;;;13.27;8.10;;;11.10;1.00;;;13.98;71.85;99130.91;5062719;27;118895;-74
2022/05/25 03:33:22;;;;;;;14.10;9.25;;;11.00;1.00;;;13.60;73.74;99129.34;5060879;27;120014;-75
2022/05/25 03:35:51;;;;;;;12.85;8.70;;;10.90;1.00;;;13.39;75.12;99123.19;5059533;27;130227;-75
2022/05/25 03:38:19;;;;;;;14.68;9.48;;;11.00;1.00;;;13.20;76.41;99127.22;5060822;27;131428;-75
2022/05/25 03:40:50;;;;;;;14.30;8.95;;;11.00;1.00;;;13.06;77.31;99132.97;5060672;27;119644;-75
2022/05/25 03:43:20;;;;;;;13.50;9.73;;;11.00;1.00;;;13.02;78.19;99131.25;5079896;27;120282;-75
2022/05/25 03:45:49;;;;;;;14.13;8.98;;;11.10;1.00;;;12.98;78.84;99135.78;5051579;27;130117;-76
2022/05/25 03:48:17;;;;;;;16.10;8.93;;;11.20;1.00;;;12.99;79.62;99132.72;5053405;27;129361;-75
2022/05/25 03:50:46;;;;;;;13.07;9.50;;;11.30;1.00;;;13.05;79.67;99138.75;5061948;27;119329;-76
2022/05/25 03:53:14;;;;;;;13.23;9.23;;;11.40;1.00;;;13.11;79.92;99130.03;5060848;27;120377;-74
2022/05/25 03:55:44;;;;;;;16.85;10.07;;;11.50;1.00;;;13.32;79.71;99134.59;5043779;27;128753;-74
2022/05/25 03:58:14;;;;;;;13.88;9.60;;;11.70;1.00;;;13.59;79.31;99130.47;5062067;27;129934;-75
2022/05/25 04:00:44;;;;;;;12.15;9.00;;;11.90;1.00;;;13.77;78.54;99130.22;5058458;27;122367;-74
2022/05/25 04:03:17;;;;;;;15.45;9.68;;;12.10;1.00;;;13.79;79.08;99126.03;5058785;27;122215;-73
2022/05/25 04:05:45;;;;;;;13.95;9.73;;;12.30;1.00;;;13.78;79.37;99129.09;5059043;27;129785;-75
2022/05/25 04:08:14;;;;;;;13.80;9.10;;;12.30;1.00;;;13.72;80.25;99136.72;5061263;27;129148;-75
2022/05/25 04:10:42;;;;;;;18.48;10.20;;;12.30;1.00;;;13.74;81.63;99131.69;5061326;27;119841;-74
2022/05/25 04:13:13;;;;;;;13.38;9.52;;;12.40;1.00;;;13.79;82.43;99127.94;5060402;27;120122;-75
2022/05/25 04:15:41;;;;;;;11.68;9.40;;;12.50;1.00;;;13.88;82.62;99134.09;5059457;27;130427;-76
2022/05/25 04:18:10;;;;;;;14.00;10.00;;;12.60;1.00;;;13.99;82.19;99135.22;5044526;27;129116;-75
2022/05/25 04:20:38;;;;;;;14.20;9.07;;;12.70;1.00;;;14.20;81.78;99139.75;5061399;27;118677;-73
2022/05/25 04:23:11;;;;;;;12.40;9.40;;;12.90;1.00;;;14.38;80.37;99141.06;5060129;27;119530;-75
2022/05/25 04:25:41;;;;;;;13.98;9.40;;;12.90;1.00;;;14.72;79.25;99136.19;5037952;27;130880;-74
2022/05/25 04:28:11;;;;;;;16.63;10.07;;;13.20;1.00;;;14.89;78.82;99137.81;5038874;27;129823;-74
2022/05/25 04:30:41;;;;;;;14.52;9.35;;;13.40;1.00;;;14.91;78.35;99135.53;5039655;27;119521;-75
2022/05/25 04:33:10;;;;;;;15.65;9.75;;;13.50;1.00;;;14.96;78.11;99137.22;5038980;27;120148;-74
2022/05/25 04:35:38;;;;;;;20.63;10.25;;;13.60;1.00;;;15.08;77.63;99134.44;5038861;27;130549;-74
2022/05/25 04:38:07;;;;;;;15.15;9.00;;;13.70;1.00;;;15.27;77.02;99141.16;5024311;27;128893;-74
2022/05/25 04:40:38;;;;;;;11.68;9.00;;;13.90;1.00;;;15.37;75.87;99137.88;5039668;27;119828;-75
2022/05/25 04:43:10;;;;;;;11.93;9.15;;;14.00;1.00;;;15.57;75.09;99133.28;5041658;27;118494;-74
2022/05/25 04:45:41;;;;;;;14.95;9.48;;;14.20;1.00;;;15.69;74.19;99129.69;5023843;27;128786;-74
2022/05/25 04:48:12;;;;;;;14.07;9.45;;;14.40;1.00;;;15.86;73.29;99130.47;5030610;27;130057;-74
2022/05/25 04:50:44;;;;;;;13.73;9.13;;;14.50;1.00;;;15.98;72.36;99135.81;5036140;27;122265;-75
2022/05/25 04:53:15;;;;;;;12.25;8.75;;;14.60;1.00;;;16.23;71.74;99135.59;5038751;27;122194;-75
2022/05/25 04:58:33;;;;;;;16.27;9.00;;;15.10;1.00;;;16.83;69.51;99140.72;5040617;27;130229;-73
2022/05/25 05:01:05;;;;;;;15.75;9.20;;;15.40;1.00;;;17.15;68.65;99140.56;5038961;27;121752;-73
2022/05/25 05:03:34;;;;;;;12.85;8.57;;;15.60;1.00;;;17.33;67.22;99135.41;5038872;27;119906;-73
2022/05/25 05:06:03;;;;;;;16.13;9.38;;;15.60;1.00;;;17.54;66.36;99135.72;5038216;27;130261;-74
2022/05/25 05:08:31;;;;;;;12.57;8.18;;;15.80;1.00;;;17.67;65.85;99139.09;5038935;27;129300;-73
2022/05/25 05:11:09;;;;;;;11.68;7.57;;;16.10;1.00;;;17.87;64.93;99142.53;5038776;27;119417;-75
2022/05/25 05:13:38;;;;;;;12.25;8.45;;;16.30;1.00;;;18.04;62.95;99151.41;5038736;27;120115;-75
2022/05/25 05:16:11;;;;;;;10.77;8.02;;;16.40;99.90;;;18.38;61.62;99143.25;5037198;27;130447;-75
2022/05/25 05:18:40;;;;;;;13.30;8.18;;;16.70;99.90;;;18.59;58.53;99143.53;5038270;27;130642;-74
2022/05/25 05:21:23;;;;;;;14.13;7.40;;;16.90;99.90;;;18.92;55.88;99155.72;5023419;27;119698;-76
2022/05/25 05:23:52;;;;;;;9.45;5.78;;;17.20;99.90;;;19.13;54.77;99148.84;5038252;27;120331;-75
2022/05/25 05:26:20;;;;;;;10.88;6.00;;;17.40;99.90;;;19.32;50.95;99156.09;5040411;27;129756;-76
2022/05/25 05:28:53;;;;;;;10.68;4.68;;;17.50;99.90;;;19.38;49.52;99144.38;5038439;27;129430;-73
2022/05/25 05:31:23;;;;;;;9.43;4.43;;;17.50;99.90;;;19.61;49.61;99146.13;5023599;27;118458;-73
2022/05/25 05:33:51;;;;;;;8.88;4.57;;;17.80;99.90;;;19.75;48.16;99149.00;5039091;27;119869;-75
2022/05/25 05:36:24;;;;;;;6.55;3.80;;;18.00;99.90;;;19.92;47.48;99149.53;5038088;27;130482;-76
2022/05/25 05:38:57;;;;;;;7.88;3.67;;;18.00;99.90;;;19.86;44.48;99140.06;5036495;27;129554;-75
2022/05/25 05:41:29;;;;;;;9.52;3.25;;;17.90;99.90;;;20.00;44.99;99142.13;5037243;27;122319;-74
2022/05/25 05:44:00;;;;;;;5.90;2.95;;;18.10;99.90;;;20.21;45.13;99145.00;5038304;27;121822;-74
2022/05/25 05:46:30;;;;;;;9.30;3.08;;;18.30;99.90;;;20.29;42.31;99145.84;5038144;27;130017;-74
2022/05/25 05:48:59;;;;;;;8.63;3.30;;;18.30;99.90;;;20.43;42.53;99140.38;5038077;27;129478;-74
2022/05/25 05:51:27;;;;;;;12.98;3.30;;;18.50;99.90;;;20.47;40.84;99141.22;5038405;27;119761;-76
2022/05/25 05:53:56;;;;;;;10.45;3.45;;;18.40;99.90;;;20.56;40.22;99137.28;5038365;27;120564;-76
2022/05/25 05:56:25;;;;;;;6.60;2.88;;;18.50;99.90;;;20.49;39.03;99149.09;5037698;27;130772;-75
2022/05/25 05:58:53;;;;;;;5.00;2.88;;;18.40;99.90;;;20.59;40.33;99153.06;5039931;27;129681;-75
2022/05/25 06:01:22;;;;;;;5.57;2.70;;;18.50;99.90;;;20.77;39.96;99150.38;5038006;27;119769;-76
2022/05/25 06:03:51;;;;;;;4.55;2.50;;;18.60;99.90;;;21.04;40.74;99147.31;5038135;27;119922;-76
2022/05/25 06:06:20;;;;;;;5.88;2.70;;;18.90;99.90;;;21.15;41.15;99151.66;5036514;27;130320;-74
2022/05/25 06:08:49;;;;;;;6.75;2.95;;;19.10;99.90;;;21.15;39.79;99145.38;5037285;27;130023;-74
2022/05/25 06:11:19;;;;;;;4.95;2.45;;;19.20;99.90;;;21.40;38.36;99150.13;5037616;27;119560;-75
2022/05/25 06:13:49;;;;;;;5.15;2.80;;;19.30;99.90;;;21.53;37.96;99143.88;5057273;27;119174;-74
2022/05/25 06:21:56;;;;;;;5.28;3.30;;;19.30;99.90;;;21.72;39.65;99147.38;5037735;27;120503;-78
2022/05/25 06:24:25;;;;;;;7.72;2.55;;;19.50;99.90;;;21.78;39.07;99136.75;5038392;27;120415;-76
2022/05/25 06:26:53;;;;;;;7.35;2.80;;;19.60;99.90;;;21.75;38.71;99132.00;5037598;27;130721;-74
2022/05/25 06:29:22;;;;;;;5.57;2.53;;;19.60;99.90;;;21.82;38.02;99130.03;5037381;27;130231;-74
2022/05/25 06:31:51;;;;;;;6.22;2.50;;;19.70;99.90;;;21.88;37.73;99133.97;5036597;27;122072;-72
2022/05/25 06:34:22;;;;;;;6.65;3.75;;;19.60;99.90;;;21.99;38.40;99135.94;5038755;27;121667;-75
2022/05/25 06:36:51;;;;;;;4.88;2.72;;;19.60;99.90;;;22.14;38.33;99131.16;5041034;27;130922;-74
2022/05/25 06:39:21;;;;;;;8.30;2.95;;;19.80;99.90;;;22.24;37.31;99128.34;5040557;27;129976;-75
2022/05/25 06:41:50;;;;;;;10.98;3.13;;;19.90;99.90;;;22.42;37.73;99131.09;5043620;27;118967;-76
2022/05/25 06:44:18;;;;;;;8.20;2.45;;;20.10;99.90;;;22.45;37.71;99123.97;5041375;27;119427;-75
2022/05/25 06:46:49;;;;;;;7.38;3.05;;;20.10;99.90;;;22.48;36.61;99127.91;5040950;27;130977;-73
2022/05/25 06:49:17;;;;;;;4.93;2.58;;;20.30;99.90;;;22.65;37.28;99123.50;5038511;27;129275;-79
2022/05/25 06:51:47;;;;;;;4.72;2.55;;;20.30;99.90;;;22.63;37.32;99125.88;5043730;27;120254;-77
2022/05/25 06:54:17;;;;;;;5.90;2.67;;;20.30;99.90;;;22.77;36.36;99125.81;5041580;27;119426;-77
2022/05/25 06:56:46;;;;;;;4.15;2.20;;;20.40;99.90;;;22.85;35.99;99127.34;5039457;27;130137;-78
2022/05/25 06:59:14;;;;;;;6.43;2.72;;;20.40;99.90;;;22.96;36.00;99130.03;5043746;27;130050;-80
2022/05/25 07:01:43;;;;;;;5.78;2.55;;;20.50;99.90;;;22.97;35.49;99132.41;5041395;27;120314;-80
2022/05/25 07:04:12;;;;;;;5.72;2.65;;;20.40;99.90;;;22.98;35.34;99128.47;5041387;27;119789;-79
2022/05/25 07:06:41;;;;;;;7.30;2.30;;;20.40;99.90;;;23.18;35.97;99125.19;5040940;27;129928;-76
2022/05/25 07:09:12;;;;;;;3.67;2.20;;;20.70;99.90;;;23.05;34.24;99132.38;5025781;27;129672;-78
2022/05/25 07:11:42;;;;;;;5.13;2.03;;;20.50;99.90;;;23.21;35.46;99124.38;5042243;27;119208;-77
2022/05/25 07:14:11;;;;;;;9.38;2.85;;;20.70;99.90;;;23.36;33.02;99127.84;5041995;27;119793;-78
2022/05/25 07:16:40;;;;;;;9.52;2.85;;;20.60;99.90;;;23.31;33.85;99129.06;5039985;27;131011;-78
2022/05/25 07:19:08;;;;;;;7.53;2.60;;;20.30;99.90;;;23.36;32.97;99118.72;5058635;27;129643;-79
2022/05/25 07:21:37;;;;;;;9.32;3.00;;;20.50;99.90;;;23.56;32.86;99122.53;5060795;27;122315;-74
2022/05/25 07:24:07;;;;;;;7.07;2.58;;;20.70;99.90;;;23.72;32.53;99123.97;5062013;27;123355;-80
2022/05/25 07:26:37;;;;;;;7.03;2.50;;;20.90;99.90;;;23.99;31.30;99115.81;5063292;27;129935;-79
2022/05/25 07:29:05;;;;;;;5.50;2.35;;;21.00;99.90;;;24.02;31.09;99110.22;5066291;27;129445;-79
2022/05/25 07:31:42;;;;;;;8.93;2.97;;;20.70;99.90;;;23.89;31.56;99111.97;5064036;27;119799;-80
2022/05/25 07:34:17;;;;;;;6.43;2.33;;;20.80;99.90;;;23.87;30.83;99117.13;5050032;27;118883;-80
2022/05/25 07:36:51;;;;;;;6.85;2.30;;;21.00;99.90;;;23.93;31.01;99112.69;5063020;27;129806;-79
2022/05/25 07:39:23;;;;;;;5.57;2.20;;;21.20;99.90;;;24.13;32.08;99109.34;5060244;27;129683;-79
2022/05/25 07:41:58;;;;;;;4.95;1.90;;;21.40;99.90;;;24.17;30.99;99113.66;5043412;27;120265;-79
2022/05/25 07:44:32;;;;;;;5.43;2.17;;;21.50;99.90;;;24.45;30.38;99119.25;5042735;27;121357;-79
2022/05/25 07:47:01;;;;;;;4.03;2.28;;;21.50;99.90;;;24.74;29.28;99114.97;5042354;27;129161;-78
2022/05/25 07:49:29;;;;;;;3.25;1.85;;;21.90;99.90;;;24.69;27.72;99112.63;5042395;27;130402;-79
2022/05/25 07:51:58;;;;;;;6.35;2.13;;;21.50;99.90;;;24.75;28.79;99105.41;5046507;27;118306;-79
2022/05/25 07:54:27;;;;;;;3.40;1.67;;;21.60;99.90;;;24.66;28.66;99113.47;5028492;27;119688;-79
2022/05/25 07:56:56;;;;;;;7.00;1.92;;;21.50;99.90;;;24.66;29.33;99107.13;5041718;27;131274;-79
2022/05/25 07:59:25;;;;;;;3.70;1.95;;;21.50;99.90;;;24.70;29.68;99108.66;5044719;27;129674;-80
2022/05/25 08:07:34;;;;;;;6.32;2.30;;;22.00;99.90;;;25.44;28.90;99107.97;5041544;27;130294;-80
2022/05/25 08:10:07;;;;;;;4.65;2.25;;;22.60;99.90;;;25.55;28.68;99104.25;5039446;27;130374;-79
2022/05/25 08:12:39;;;;;;;5.88;2.42;;;22.50;99.90;;;25.31;28.55;99107.00;5025325;27;120929;-80
2022/05/25 08:15:10;;;;;;;5.53;2.60;;;22.20;99.90;;;24.86;28.80;99110.81;5027110;27;119956;-78
2022/05/25 08:17:38;;;;;;;4.80;1.95;;;22.10;99.90;;;24.47;28.58;99120.41;5041378;27;129962;-80
2022/05/25 08:20:10;;;;;;;5.75;2.00;;;21.60;99.90;;;24.60;28.29;99112.34;5042314;27;129110;-82
2022/05/25 08:22:40;;;;;;;2.63;1.65;;;21.50;99.90;;;24.68;28.66;99116.63;5041082;27;120582;-80
2022/05/25 08:25:11;;;;;;;2.90;1.73;;;21.60;99.90;;;24.65;28.08;99113.88;5039922;27;119976;-80
2022/05/25 08:27:41;;;;;;;3.78;1.90;;;21.60;99.90;;;24.69;28.38;99106.31;5041494;27;131154;-79
2022/05/25 08:30:13;;;;;;;5.03;2.25;;;21.60;99.90;;;24.69;29.04;99112.63;5044135;27;128731;-80
2022/05/25 08:32:43;;;;;;;6.28;2.00;;;21.40;99.90;;;25.02;29.55;99112.19;5042313;27;119675;-80
2022/05/25 08:35:11;;;;;;;5.95;2.30;;;21.70;99.90;;;25.00;28.61;99112.59;5047506;27;119254;-79
2022/05/25 08:37:41;;;;;;;5.45;2.22;;;21.80;99.90;;;24.79;28.63;99099.81;5059078;27;130413;-78
2022/05/25 08:40:13;;;;;;;6.22;2.60;;;21.40;99.90;;;24.69;28.61;99107.09;5059622;27;129188;-80
2022/05/25 08:42:52;;;;;;;5.85;2.40;;;21.30;99.90;;;24.95;27.98;99118.63;5041987;27;119336;-80
2022/05/25 08:45:24;;;;;;;4.30;2.15;;;21.30;99.90;;;24.99;28.63;99116.56;5054150;27;119790;-80
2022/05/25 08:47:58;;;;;;;13.07;2.38;;;21.60;99.90;;;25.02;28.38;99107.41;5059963;27;129803;-80
2022/05/25 08:50:28;;;;;;;4.18;2.10;;;21.80;99.90;;;25.20;28.58;99111.94;5059414;27;129783;-79
2022/05/25 08:52:59;;;;;;;6.70;2.13;;;22.00;99.90;;;25.39;29.23;99102.91;5058716;27;120784;-79
2022/05/25 08:55:45;;;;;;;6.38;2.63;;;22.00;99.90;;;25.39;29.26;99102.91;5062515;27;120284;-79
2022/05/25 08:58:16;;;;;;;5.55;2.15;;;22.10;99.90;;;25.69;28.11;99103.22;5059792;27;129855;-80
2022/05/25 09:00:46;;;;;;;6.35;2.08;;;22.30;99.90;;;25.75;27.41;99101.50;5059732;27;130078;-79
2022/05/25 09:03:29;;;;;;;8.02;2.83;;;22.30;99.90;;;25.51;26.44;99097.94;5062590;27;102907;-81
2022/05/25 09:06:06;;;;;;;6.32;2.22;;;22.20;99.90;;;25.36;26.92;99103.75;5061696;27;120720;-77
2022/05/25 09:08:46;;;;;;;4.15;2.00;;;21.90;99.90;;;25.16;27.88;99100.84;5059666;27;131837;-79
2022/05/25 09:11:19;;;;;;;4.63;2.20;;;21.60;99.90;;;25.67;28.13;99100.84;5059681;27;130096;-79
2022/05/25 09:13:57;;;;;;;5.78;2.40;;;22.20;99.90;;;25.98;27.21;99093.16;5059925;27;119713;-80
2022/05/25 09:16:29;;;;;;;5.55;2.10;;;22.60;99.90;;;26.26;27.07;99084.69;5061581;27;118753;-80
2022/05/25 09:19:06;;;;;;;5.68;2.58;;;22.60;99.90;;;26.19;26.70;99080.84;5059760;27;130020;-78
2022/05/25 09:21:41;;;;;;;8.32;2.60;;;21.80;99.90;;;26.59;27.26;99082.03;5061787;27;129624;-78
2022/05/25 09:24:16;;;;;;;3.45;2.00;;;22.90;99.90;;;27.06;27.99;99084.56;5058804;27;120699;-78
2022/05/25 09:26:44;;;;;;;4.28;2.35;;;23.60;99.90;;;27.13;28.17;99073.25;5056540;27;119909;-80
2022/05/25 09:29:15;;;;;;;3.67;1.95;;;23.70;99.90;;;27.20;27.74;99078.63;5057683;27;129911;-76
2022/05/25 09:31:48;;;;;;;7.03;2.65;;;23.80;99.90;;;27.22;28.03;99070.66;5058979;27;131275;-74
2022/05/25 09:34:30;;;;;;;4.90;2.25;;;23.70;99.90;;;27.45;28.43;99074.47;5059449;27;121033;-77
2022/05/25 09:37:09;;;;;;;4.28;2.13;;;23.80;99.90;;;27.54;27.47;99074.63;5059174;27;119410;-78
2022/05/25 09:39:44;;;;;;;4.35;2.45;;;23.90;99.90;;;27.69;28.08;99063.09;5058824;27;130323;-79
2022/05/25 09:42:19;;;;;;;6.20;2.55;;;23.80;99.90;;;27.50;26.04;99060.00;5058683;27;129941;-80
2022/05/25 09:44:53;;;;;;;4.30;2.60;;;23.20;99.90;;;27.16;26.36;99069.59;5059209;27;120159;-77
2022/05/25 09:47:27;;;;;;;7.07;2.45;;;22.70;99.90;;;27.09;27.64;99066.97;5060278;27;120070;-75
2022/05/25 09:49:59;;;;;;;4.88;2.00;;;22.70;99.90;;;27.08;26.92;99063.41;5059360;27;129752;-78
2022/05/25 09:52:36;;;;;;;4.55;2.40;;;23.00;99.90;;;26.84;25.27;99067.56;5058983;27;129573;-79
2022/05/25 09:55:11;;;;;;;4.43;2.25;;;22.60;99.90;;;27.19;25.96;99071.50;5059917;27;121243;-79
2022/05/25 09:57:46;;;;;;;6.25;2.20;;;22.90;99.90;;;26.95;26.47;99070.09;5060874;27;121817;-75
2022/05/25 10:00:22;;;;;;;4.55;2.20;;;22.80;99.90;;;26.77;27.02;99070.50;5057999;27;130243;-78
2022/05/25 10:02:59;;;;;;;4.00;2.10;;;22.50;99.90;;;26.70;27.41;99063.13;5057578;27;130338;-78
2022/05/25 10:05:32;;;;;;;9.27;2.72;;;22.70;99.90;;;26.83;27.79;99061.22;5059186;27;121519;-75
2022/05/25 10:08:15;;;;;;;4.38;2.20;;;22.60;99.90;;;26.53;27.90;99065.03;5059638;27;119629;-77
2022/05/25 10:10:52;;;;;;;4.63;2.17;;;22.00;99.90;;;26.98;28.47;99067.22;5040068;27;130989;-77
2022/05/25 10:13:25;;;;;;;6.30;2.30;;;23.00;99.90;;;26.96;27.03;99057.72;5042442;27;129618;-76
2022/05/25 10:15:55;;;;;;;5.38;2.40;;;22.80;99.90;;;26.52;27.24;99063.47;5027357;27;120092;-81
2022/05/25 10:18:40;;;;;;;4.60;2.00;;;22.60;99.90;;;26.28;27.61;99065.56;5044156;27;118540;-77
2022/05/25 10:21:22;;;;;;;3.63;2.07;;;22.30;99.90;;;26.25;27.74;99067.22;5040863;27;130463;-76
2022/05/25 10:23:51;;;;;;;4.63;2.28;;;22.40;99.90;;;26.62;27.59;99072.81;5041852;27;129492;-74
2022/05/25 10:26:36;;;;;;;5.70;2.58;;;23.00;99.90;;;26.87;27.95;99067.47;5041995;27;120651;-75
2022/05/25 10:29:09;;;;;;;5.45;2.60;;;23.50;99.90;;;26.87;28.32;99075.84;5041936;27;119757;-75
2022/05/25 10:37:36;;;;;;;5.10;2.53;;;23.10;99.90;;;26.55;27.24;99060.63;5041827;27;119880;-76
2022/05/25 10:40:09;;;;;;;5.20;2.40;;;22.80;99.90;;;26.86;27.57;99059.56;5042007;27;119928;-76
2022/05/25 10:42:45;;;;;;;6.93;2.65;;;23.20;99.90;;;26.90;27.90;99061.03;5039118;27;130422;-75
2022/05/25 10:45:18;;;;;;;5.35;2.47;;;23.50;99.90;;;27.10;27.59;99057.41;5052446;27;130098;-77
2022/05/25 10:48:07;;;;;;;6.70;2.33;;;23.60;99.90;;;27.00;25.10;99052.88;5061163;27;122221;-75
2022/05/25 10:50:50;;;;;;;8.05;2.75;;;23.00;99.90;;;27.31;26.29;99052.53;5061967;27;122116;-75
2022/05/25 10:53:30;;;;;;;7.65;3.13;;;23.60;99.90;;;27.58;26.98;99047.47;5063046;27;130056;-74
2022/05/25 10:56:08;;;;;;;4.30;2.30;;;24.10;99.90;;;27.45;24.94;99043.81;5061685;27;129366;-78
2022/05/25 10:58:56;;;;;;;4.53;2.40;;;23.60;99.90;;;27.74;24.87;99045.88;5063508;27;118554;-76
2022/05/25 11:02:13;;;;;;;4.60;2.30;;;23.60;99.90;;;28.26;24.84;99039.22;5063567;27;118413;-78